2014 Haywood NorAm WCC - Buff Sprint Qualifier | Zone4.ca



2014 Haywood NorAm WCC - Buff Sprint Qualifier 

Date: Feb 15, 2014
Unofficial  Results
Location: Otway Nordic Centre
Host Club: Caledonia Nordic Ski Club

Jury
Technical Delegate:  Mike Norton 
Assistant TD:  Claude Chabot 
Chief of Competition:  Cal Benson 
CCC Race Director:  Dave Dyer 
Obs. Time: 0900
Wind Vel:  None Humidity: 96.6%
Air Temp: -9 Snow Temp: -10
Weather: Overcast Snow Cond:

Open Men 1.6 km. Classic  1600 m  
PL Bib Name YOB SubCat Rnk CCC# FIS# Prov Club Team Time Diff
1 1 Philip Widmer 1983 Sr Men 1/16 13040 3100042 AB Canmore Nordic AWCA-NST 0:03:43.43  
2 4 Julien Locke 1993 Sr Men 2/16 21432 3100248 BC Black Jack Black Jack 0:03:46.47 +3.04
3 5 Sébastien Townsend 1992 Sr Men 3/16 18484 3100262 QC Nakkertok Nordique AWCA 0:03:47.05 +3.62
4 6 Yannick Lapierre 1992 Sr Men 4/16 14579 3100202 QC Nakkertok Nordique AWCA 0:03:48.13 +4.70
5 7 Ezekiel Williams 1993 Sr Men 5/16 14195 3100263 QC Nakkertok Nordique AWCA 0:03:50.92 +7.49
6 3 Russell Kennedy 1991 Sr Men 6/16 25625 3100268 AB Canmore Nordic AWCA 0:03:52.14 +8.71
7 9 Martin Schrama 1992 Sr Men 7/16 18392 3100199 BC Whistler Nordic CVTC 0:03:53.86 +10.43
8 8 Alex Mahoney 1992 Sr Men 8/16 14608 3100250 AB Rocky Mountain Racers AWCA 0:03:55.86 +12.43
9 11 Colin Ferrie 1993 Sr Men 9/16 19558 3100293 BC Kimberley Black Jack 0:03:57.01 +13.58
10 16 Scott Fraser 1993 Sr Men 10/16 18509   AB Canmore Nordic SKST 0:03:57.86 +14.43
11 10 Geoffrey Richards 1992 Sr Men 11/16 18425 3100260 BC Black Jack CVTC 0:03:58.23 +14.80
12 2 Sebastien Dandurand 1993 Sr Men 12/16 28197 3100310 AB Canmore Nordic CVTC 0:03:58.87 +15.44
13 17 Sam Morris 1995 Jr Men 1/7 23638 3100317 BC Hollyburn CVTC 0:04:00.48 +17.05
14 14 David Palmer 1993 Sr Men 13/16 18506 3100292 BC Black Jack Black Jack 0:04:02.22 +18.79
15 15 Colin Foley 1995 Jr Men 2/7 23746 3100345 ON Nakkertok CVTC 0:04:02.29 +18.86
16 13 Paul Dupuis 1993 Sr Men 14/16 14604 3100240 AB Canmore Nordic CVTC 0:04:02.85 +19.42
17 18 Andrew Avis 1995 Jr Men 3/7 28641 3100337 ON Highlands Trailblazers CVTC 0:04:05.01 +21.58
18 12 Kai Lukowiak 1991 Sr Men 15/16 14564 3100330 AB Foothills Nordic   0:04:06.22 +22.79
19 20 Liam Patterson 1995 Jr Men 4/7 14612 3100338 ON Big Thunder Nordic CVTC 0:04:08.94 +25.51
20 22 Peter Hicks 1996 Jr Men 5/7 25580   AB Canmore Nordic AST 0:04:13.92 +30.49
21 19 Benjamin Osorio 1993 Sr Men 16/16 22606 3100346 ON Arrowhead Nordic CVTC 0:04:16.22 +32.79
22 21 Lukas Mark 1994 Jr Men 6/7 25587 3100341 AB Muskeg Flyers Edson   0:04:16.90 +33.47
23 24 Ben Dearing 1995 Jr Men 7/7 28183   MB Red River Nordic MBST 0:04:45.54 +1:02.11


Results are posted through an automated system by licenced clubs. For inquires about result corrections please contact the race organizer.

Copyright 2017 - Zone4 Systems zone4.ca       Privacy Policy     Delivery/Refund Policy     Terms of Service    Contact Zone4